Mentone, CA (92359)

3:47 AM PST on December 27, 2014 (GMT -0800)
NonFedAWOS REDLANDS CA US SUPERAWOS | Change Station
CLOSE
Current Station
Personal Weather Station
Location: Redlands, CA
Elevation: 1570 ft
Nearby Weather Stations

Elev 1570 ft 34.09 °N, 117.15 °W | Updated 52 minutes ago

Clear
Clear
39 °F
Feels Like 35 °F
N
5
Wind Variable Wind from ESE
Gusts 0.0 mph

Today
High -- | Low -- °F
--% Chance of Precip.
Yesterday
High -- | Low -- °F
Precip. -- in
6:52 AM 4:46 PM
Waxing Crescent, 35% visible
Pressure 30.23 in
Visibility 10.0 miles
Clouds Clear
Windchill 35 °F
Dew Point 10 °F
Humidity 30%
Rainfall -999.00 in
Snow Depth Not available.
UV 0 out of 12
Pollen 7.00 out of 12
Air Quality Not available.
Flu Activity Not available.
METAR KRIV 271058Z AUTO 05009KT 10SM CLR 05/M09 A3022 RMK AO2 SLP235 T00511086

More Conditions Fewer Conditions

Pressure 30.23 in
Visibility 10.0 miles
Clouds Clear
Windchill 35 °F
Dew Point 10 °F
Humidity 30%
Rainfall -999.00 in
Snow Depth Not available.
UV 0 out of 12
Pollen 7.00 out of 12
Air Quality Not available.
Flu Activity Not available.
METAR KRIV 271058Z AUTO 05009KT 10SM CLR 05/M09 A3022 RMK AO2 SLP235 T00511086

More Conditions Fewer Conditions

10-Day Weather Forecast

Almanac

Astronomy

Dec. 27, 2014 Rise Set
Actual Time
Civil Twilight
Nautical Twilight
Astronomical Twilight
Moon
Length of Visible Light
Length of Day
Tomorrow will be .
, % of the Moon is Illuminated

Today's Extremes

State Highs State Lows

Community

WunderPhotos

Upload Photos

1,780,885 photos uploaded!

WunderBlogs® & News

Nearby

Air Quality

  Air Quality AQ Index Pollutant
Not available.

Snow Depth

Station Depth Elevation

Earthquake Activity

City Distance Mag. Time & Date
Minimum magnitude displayed is 2.5.

Coastal Water Temperatures

Place Temperature

Nearby Weather Stations